Time;durP1;ratioP1;P1;durP2;ratioP2;P2;SDS_P1;SDS_P2;PMS_P1;PMS_P2;Temp;Humidity;BMP_temperature;BMP_pressure;BME280_temperature;BME280_humidity;BME280_pressure;Samples;Min_cycle;Max_cycle;Signal;HPM_P1;HPM_P2
2023/11/21 00:00:17;;;;;;;8.40;4.60;;;;;;;-0.67;76.16;98252.16;105183;1264;72676;-27
2023/11/21 00:02:45;;;;;;;6.40;3.40;;;;;;;-0.90;77.12;98254.90;102635;1266;61116;-27
2023/11/21 00:12:54;;;;;;;9.50;4.70;;;;;;;0.17;77.20;98258.39;102685;1295;600116;-24
2023/11/21 00:15:23;;;;;;;6.80;4.50;;;;;;;0.37;75.94;98258.94;104932;1264;61206;-24
2023/11/21 00:17:50;;;;;;;8.90;4.40;;;;;;;0.20;75.69;98265.11;104921;1269;61200;-26
2023/11/21 00:20:18;;;;;;;12.10;5.80;;;;;;;-0.11;75.96;98268.33;104912;1270;72269;-27
2023/11/21 00:22:46;;;;;;;11.40;5.40;;;;;;;-0.40;76.96;98269.77;104866;1272;73781;-27
2023/11/21 00:25:15;;;;;;;10.60;6.40;;;;;;;-0.68;78.22;98271.48;104882;1266;72636;-26
2023/11/21 00:27:43;;;;;;;9.20;5.70;;;;;;;-0.97;79.94;98273.66;102483;1270;61195;-26
2023/11/21 00:30:12;;;;;;;8.80;5.20;;;;;;;-1.12;80.25;98270.90;105061;1268;72201;-27
2023/11/21 00:40:25;;;;;;;8.90;5.40;;;;;;;-0.06;78.80;98278.48;102729;1290;600094;-26
2023/11/21 00:42:53;;;;;;;8.20;4.70;;;;;;;0.14;77.32;98276.13;105868;1253;61170;-25
2023/11/21 00:45:20;;;;;;;6.40;3.90;;;;;;;0.00;76.62;98278.92;105680;1255;61034;-26
2023/11/21 00:47:48;;;;;;;7.50;4.20;;;;;;;-0.25;76.85;98275.33;105742;1254;71002;-27
2023/11/21 00:50:16;;;;;;;6.00;3.60;;;;;;;-0.50;77.43;98281.65;105710;1255;74336;-26
2023/11/21 00:52:43;;;;;;;8.50;5.20;;;;;;;-0.71;77.71;98282.67;105904;1254;70392;-26
2023/11/21 00:55:12;;;;;;;6.40;4.10;;;;;;;-0.95;78.69;98276.80;103343;1256;3473201;-26
2023/11/21 00:57:40;;;;;;;6.60;4.90;;;;;;;-1.13;79.39;98277.77;105759;1251;61103;-26
2023/11/21 01:07:51;;;;;;;7.80;4.70;;;;;;;0.01;77.41;98274.25;102679;1292;599868;-24
2023/11/21 01:10:20;;;;;;;10.40;4.20;;;;;;;-0.24;77.53;98275.30;104839;1267;61013;-27
2023/11/21 01:12:48;;;;;;;7.20;4.40;;;;;;;-0.53;78.39;98274.14;104947;1269;61118;-26
2023/11/21 01:15:16;;;;;;;8.90;5.50;;;;;;;-0.73;78.76;98276.46;104882;1270;72231;-26
2023/11/21 01:25:26;;;;;;;6.30;4.30;;;;;;;-0.28;79.80;98277.89;102636;1293;599351;-24
2023/11/21 01:27:56;;;;;;;5.00;3.60;;;;;;;0.18;78.19;98277.80;105581;1258;61091;-25
2023/11/21 01:30:25;;;;;;;8.40;4.70;;;;;;;0.16;77.41;98274.84;105539;1257;61170;-25
2023/11/21 01:40:35;;;;;;;9.70;4.90;;;;;;;-0.76;80.04;98261.40;102658;1292;600138;-25
2023/11/21 01:43:03;;;;;;;6.40;4.30;;;;;;;-0.98;81.09;98262.65;104903;1266;61777;-26
2023/11/21 01:45:33;;;;;;;6.80;4.00;;;;;;;-0.65;81.32;98263.80;104877;1267;61244;-26
2023/11/21 01:48:02;;;;;;;7.30;4.90;;;;;;;-0.07;79.17;98262.17;104868;1270;72234;-26
2023/11/21 01:58:09;;;;;;;6.30;4.70;;;;;;;-0.52;79.74;98272.92;102728;1295;600102;-24
2023/11/21 02:00:38;;;;;;;9.60;5.70;;;;;;;-0.73;80.34;98274.58;105447;1257;61122;-25
2023/11/21 02:10:49;;;;;;;10.40;5.60;;;;;;;0.16;79.00;98272.98;102605;1294;599442;-24
2023/11/21 02:13:17;;;;;;;7.30;4.60;;;;;;;0.30;78.19;98274.48;104791;1267;61166;-24
2023/11/21 02:15:45;;;;;;;8.30;5.40;;;;;;;0.13;77.89;98275.86;104813;1268;61118;-24
2023/11/21 02:18:12;;;;;;;11.10;6.80;;;;;;;-0.13;78.44;98272.73;104833;1267;70733;-26
2023/11/21 02:20:42;;;;;;;6.60;4.00;;;;;;;-0.40;78.98;98276.39;104865;1267;74305;-26
2023/11/21 02:23:11;;;;;;;11.00;6.10;;;;;;;-0.66;79.62;98273.57;104803;1267;70688;-26
2023/11/21 02:25:39;;;;;;;6.00;4.30;;;;;;;-0.92;80.85;98273.91;102965;1261;61196;-25
2023/11/21 02:35:46;;;;;;;10.10;6.00;;;;;;;-0.14;79.15;98288.61;102855;1288;600304;-24
2023/11/21 02:38:15;;;;;;;7.80;5.90;;;;;;;-0.40;79.53;98288.67;104809;1272;61186;-24
2023/11/21 02:40:43;;;;;;;8.50;5.90;;;;;;;-0.62;80.06;98284.95;104894;1265;61042;-26
2023/11/21 02:50:53;;;;;;;8.00;5.20;;;;;;;-0.10;80.42;98293.02;102679;1293;599410;-24
2023/11/21 03:01:07;;;;;;;8.40;5.10;;;;;;;-0.47;80.05;98292.77;102650;1292;600764;-26
2023/11/21 03:03:36;;;;;;;12.80;7.20;;;;;;;-0.72;80.81;98298.42;104901;1269;61058;-26
2023/11/21 03:06:05;;;;;;;12.70;7.70;;;;;;;-0.93;81.72;98298.02;105076;1269;61206;-25
2023/11/21 03:08:33;;;;;;;8.50;5.10;;;;;;;-0.81;82.25;98299.15;104773;1273;72212;-26
2023/11/21 03:11:04;;;;;;;11.20;6.30;;;;;;;-0.03;80.27;98302.58;104823;1272;73637;-26
2023/11/21 03:13:32;;;;;;;9.50;4.90;;;;;;;0.16;78.56;98301.13;102265;1271;3474936;-27
2023/11/21 03:16:00;;;;;;;9.40;5.70;;;;;;;0.09;78.40;98297.05;104822;1264;61501;-26
2023/11/21 03:18:29;;;;;;;13.00;7.30;;;;;;;-0.13;78.72;98301.23;104864;1270;61170;-26
2023/11/21 03:20:57;;;;;;;9.40;7.00;;;;;;;-0.37;79.18;98300.16;104942;1263;72314;-26
2023/11/21 03:23:24;;;;;;;9.70;6.10;;;;;;;-0.59;80.13;98299.50;105194;1264;73330;-27
2023/11/21 03:33:36;;;;;;;8.20;6.00;;;;;;;0.13;79.53;98303.14;102728;1292;600073;-24
2023/11/21 03:36:04;;;;;;;7.00;4.90;;;;;;;0.03;79.00;98305.56;105080;1265;61093;-27
2023/11/21 03:38:31;;;;;;;10.00;6.20;;;;;;;-0.20;79.25;98307.69;105223;1269;61190;-27
2023/11/21 03:40:59;;;;;;;12.50;6.30;;;;;;;-0.47;79.70;98304.36;105114;1269;71002;-27
2023/11/21 03:43:29;;;;;;;5.80;4.70;;;;;;;-0.76;80.96;98310.52;105161;1268;73236;-26
2023/11/21 03:45:57;;;;;;;6.50;3.90;;;;;;;-0.93;81.72;98316.08;104975;1269;72648;-26
2023/11/21 03:48:24;;;;;;;7.80;5.80;;;;;;;-0.68;81.74;98321.92;102682;1266;3516001;-27
2023/11/21 03:58:37;;;;;;;8.30;5.50;;;;;;;-0.37;80.27;98319.58;102650;1292;600163;-24
2023/11/21 04:01:05;;;;;;;10.10;6.70;;;;;;;-0.66;80.87;98320.26;105650;1259;61122;-27
2023/11/21 04:03:33;;;;;;;9.50;5.00;;;;;;;-0.85;81.48;98320.81;105763;1259;61158;-26
2023/11/21 04:13:40;;;;;;;7.10;5.00;;;;;;;-0.03;79.69;98322.23;102716;1290;600148;-24
2023/11/21 04:16:08;;;;;;;9.30;6.10;;;;;;;-0.29;79.99;98323.31;104943;1270;61169;-27
2023/11/21 04:18:36;;;;;;;10.80;7.20;;;;;;;-0.53;80.87;98328.20;105132;1264;61121;-27
2023/11/21 04:21:05;;;;;;;14.10;8.00;;;;;;;-0.74;81.20;98326.07;105081;1269;72141;-27
2023/11/21 04:23:33;;;;;;;9.30;5.40;;;;;;;-0.89;81.83;98327.98;104663;1275;73055;-27
2023/11/21 04:26:01;;;;;;;8.10;5.20;;;;;;;-0.41;81.44;98324.56;105056;1271;72657;-27
2023/11/21 04:36:12;;;;;;;9.10;6.00;;;;;;;-0.49;80.65;98336.18;102585;1295;600220;-26
2023/11/21 04:38:40;;;;;;;11.40;6.30;;;;;;;-0.72;81.15;98332.65;105074;1267;61151;-26
2023/11/21 04:41:10;;;;;;;12.70;6.90;;;;;;;-0.90;81.99;98332.48;104894;1270;61310;-26
2023/11/21 04:43:37;;;;;;;11.30;6.40;;;;;;;-1.01;82.54;98338.58;104837;1266;70642;-26
2023/11/21 04:46:06;;;;;;;11.10;6.60;;;;;;;-0.60;82.00;98337.23;104852;1266;74305;-26
2023/11/21 04:48:34;;;;;;;7.40;4.90;;;;;;;-0.10;80.54;98339.64;104821;1272;71422;-26
2023/11/21 04:51:04;;;;;;;6.40;4.80;;;;;;;-0.05;79.90;98341.29;102601;1270;61227;-27
2023/11/21 04:53:31;;;;;;;5.00;3.70;;;;;;;-0.23;79.78;98344.38;105208;1262;72226;-26
2023/11/21 04:55:59;;;;;;;5.00;3.10;;;;;;;-0.45;80.25;98340.61;105016;1269;73213;-26
2023/11/21 04:58:27;;;;;;;9.90;7.10;;;;;;;-0.69;81.15;98339.85;105128;1262;72658;-26
2023/11/21 05:00:55;;;;;;;6.80;4.30;;;;;;;-0.90;82.26;98341.00;105143;1269;61196;-26
2023/11/21 05:03:23;;;;;;;9.80;6.30;;;;;;;-0.55;81.99;98340.54;105148;1264;61056;-27
2023/11/21 05:13:31;;;;;;;9.80;6.20;;;;;;;-0.45;80.84;98342.33;102634;1292;600143;-25
2023/11/21 05:15:59;;;;;;;6.30;4.80;;;;;;;-0.70;81.95;98341.43;104944;1267;61117;-26
2023/11/21 05:18:27;;;;;;;9.00;5.60;;;;;;;-0.90;83.07;98341.66;104863;1269;61219;-26
2023/11/21 05:20:56;;;;;;;8.80;5.60;;;;;;;-0.65;82.88;98347.02;104815;1267;72218;-26
2023/11/21 05:23:23;;;;;;;11.20;6.40;;;;;;;0.03;80.66;98353.34;105258;1260;73037;-27
2023/11/21 05:25:51;;;;;;;13.20;7.30;;;;;;;0.17;79.71;98355.22;105520;1260;72632;-26
2023/11/21 05:28:19;;;;;;;13.80;7.40;;;;;;;0.02;79.47;98355.56;103065;1260;3465293;-26
2023/11/21 05:30:47;;;;;;;13.30;6.80;;;;;;;-0.18;80.19;98352.32;105616;1259;61214;-26
2023/11/21 05:33:15;;;;;;;9.30;6.70;;;;;;;-0.45;80.71;98353.41;105540;1262;72226;-26
2023/11/21 05:35:43;;;;;;;13.70;7.50;;;;;;;-0.72;81.84;98355.14;105638;1260;73539;-26
2023/11/21 05:45:51;;;;;;;7.60;4.20;;;;;;;0.17;79.71;98368.16;103021;1286;600189;-26
2023/11/21 05:48:20;;;;;;;10.30;6.00;;;;;;;-0.03;80.13;98367.97;104923;1266;60998;-26
2023/11/21 05:50:49;;;;;;;9.50;6.10;;;;;;;-0.26;80.36;98370.91;105094;1270;61127;-26
2023/11/21 05:53:17;;;;;;;12.30;8.40;;;;;;;-0.51;81.27;98369.52;104829;1267;71111;-26
2023/11/21 05:55:45;;;;;;;7.50;4.80;;;;;;;-0.53;82.06;98374.27;105109;1266;74282;-26
2023/11/21 05:58:13;;;;;;;11.40;6.60;;;;;;;0.15;80.90;98380.08;104825;1269;72716;-27
2023/11/21 06:00:41;;;;;;;8.70;6.10;;;;;;;0.54;79.21;98382.36;102560;1269;61218;-26
2023/11/21 06:03:09;;;;;;;7.90;5.10;;;;;;;0.50;78.65;98387.00;105045;1264;61010;-25
2023/11/21 06:05:37;;;;;;;12.10;6.60;;;;;;;0.34;78.90;98388.52;105263;1264;61244;-26
2023/11/21 06:08:06;;;;;;;6.30;5.00;;;;;;;0.08;79.51;98387.54;105203;1264;75056;-26
2023/11/21 06:10:34;;;;;;;8.70;5.70;;;;;;;-0.17;80.12;98389.44;105181;1264;72641;-26
2023/11/21 06:20:41;;;;;;;10.10;5.90;;;;;;;0.75;78.42;98403.67;103017;1286;599990;-28
2023/11/21 06:23:09;;;;;;;8.70;5.80;;;;;;;0.62;78.01;98401.98;104782;1272;61116;-28
2023/11/21 06:25:37;;;;;;;11.00;7.40;;;;;;;0.40;78.51;98399.49;104837;1266;61093;-28
2023/11/21 06:28:05;;;;;;;7.80;5.70;;;;;;;0.19;79.33;98394.20;104814;1273;72231;-27
2023/11/21 06:30:32;;;;;;;9.80;6.10;;;;;;;-0.04;80.01;98398.05;104837;1267;74298;-27
2023/11/21 06:33:00;;;;;;;4.80;3.30;;;;;;;-0.20;80.55;98399.65;104802;1272;72626;-28
2023/11/21 06:35:30;;;;;;;8.20;5.30;;;;;;;-0.36;81.21;98394.23;102329;1269;3510300;-27
2023/11/21 06:37:58;;;;;;;10.90;6.10;;;;;;;0.19;80.95;98400.15;104890;1265;61090;-28
2023/11/21 06:40:25;;;;;;;8.70;6.20;;;;;;;0.59;79.09;98400.77;104832;1272;72089;-27
2023/11/21 06:42:53;;;;;;;11.00;7.10;;;;;;;0.60;78.35;98403.95;104868;1269;72522;-28
2023/11/21 06:45:21;;;;;;;7.10;3.90;;;;;;;0.46;78.62;98411.65;104864;1269;71372;-27
2023/11/21 06:47:49;;;;;;;11.30;6.20;;;;;;;0.26;78.96;98410.27;105614;1263;61173;-28
2023/11/21 06:50:18;;;;;;;11.10;6.50;;;;;;;0.05;79.92;98407.65;105542;1257;61103;-27
2023/11/21 06:52:45;;;;;;;11.70;6.30;;;;;;;-0.17;80.44;98407.54;105572;1262;72985;-27
2023/11/21 06:55:13;;;;;;;6.60;4.40;;;;;;;0.11;80.77;98414.05;105718;1259;74388;-28
2023/11/21 06:57:41;;;;;;;11.30;6.80;;;;;;;0.78;78.71;98419.98;105682;1260;72608;-28
2023/11/21 07:00:10;;;;;;;10.50;7.00;;;;;;;0.93;77.49;98424.48;105622;1260;61011;-28
2023/11/21 07:10:19;;;;;;;13.30;6.90;;;;;;;0.24;79.45;98422.66;103371;1283;601514;-27
2023/11/21 07:12:47;;;;;;;14.10;8.20;;;;;;;0.04;79.96;98431.07;105709;1257;61317;-27
2023/11/21 07:15:15;;;;;;;7.50;4.80;;;;;;;0.02;80.30;98430.15;105649;1255;61262;-27
2023/11/21 07:25:52;;;;;;;11.20;6.70;;;;;;;0.51;78.75;98433.77;103176;1283;615270;-26
2023/11/21 07:28:19;;;;;;;9.70;6.70;;;;;;;0.26;79.32;98435.48;105114;1264;61225;-26
2023/11/21 07:30:47;;;;;;;9.80;6.70;;;;;;;0.13;79.59;98433.08;105125;1265;61116;-26
2023/11/21 07:33:15;;;;;;;7.10;5.70;;;;;;;0.17;80.56;98431.32;105127;1266;71922;-26
2023/11/21 07:35:42;;;;;;;14.90;8.10;;;;;;;0.80;78.85;98434.18;104845;1266;74221;-26
2023/11/21 07:38:09;;;;;;;8.60;6.50;;;;;;;1.05;77.54;98431.91;102268;1266;3572237;-29
2023/11/21 07:40:36;;;;;;;15.30;8.30;;;;;;;0.98;77.03;98430.05;104851;1264;61102;-29
2023/11/21 07:43:02;;;;;;;11.30;8.00;;;;;;;0.83;77.61;98432.04;105141;1267;61131;-29
2023/11/21 07:45:30;;;;;;;13.90;8.60;;;;;;;0.68;78.01;98433.11;105103;1267;72255;-28
2023/11/21 07:47:57;;;;;;;11.10;7.20;;;;;;;0.48;78.74;98427.94;105017;1264;74371;-29
2023/11/21 07:50:24;;;;;;;10.40;7.30;;;;;;;0.29;79.42;98426.98;104885;1266;72714;-28
2023/11/21 07:52:51;;;;;;;6.80;5.50;;;;;;;0.36;80.01;98424.80;105028;1264;61073;-28
2023/11/21 07:55:18;;;;;;;8.30;5.80;;;;;;;0.88;78.27;98429.54;104969;1267;61176;-28
2023/11/21 07:57:45;;;;;;;9.10;3.90;;;;;;;1.10;77.18;98434.55;105641;1257;72924;-28
2023/11/21 08:00:15;;;;;;;10.30;6.90;;;;;;;0.99;76.79;98427.95;105630;1256;74284;-28
2023/11/21 08:02:42;;;;;;;9.50;6.60;;;;;;;0.73;77.47;98427.90;105542;1257;72754;-28
2023/11/21 08:05:10;;;;;;;10.20;6.70;;;;;;;0.47;78.30;98429.05;105436;1257;61135;-28
2023/11/21 08:07:48;;;;;;;8.10;5.70;;;;;;;0.26;79.18;98423.55;105528;1257;61074;-29
2023/11/21 08:10:17;;;;;;;6.90;4.40;;;;;;;0.16;80.01;98430.03;105536;1257;72021;-29
2023/11/21 08:12:48;;;;;;;11.70;7.10;;;;;;;0.69;79.15;98433.39;105520;1258;74897;-29
2023/11/21 08:15:15;;;;;;;11.20;5.60;;;;;;;0.96;77.84;98433.54;105582;1257;72691;-29
2023/11/21 08:17:42;;;;;;;8.60;6.20;;;;;;;0.99;77.55;98436.98;105409;1256;60986;-29
2023/11/21 08:20:10;;;;;;;9.90;5.60;;;;;;;0.88;77.72;98438.77;105420;1256;61059;-28
2023/11/21 08:22:40;;;;;;;12.70;7.50;;;;;;;0.71;78.28;98440.81;105516;1253;71602;-27
2023/11/21 08:25:08;;;;;;;11.90;6.20;;;;;;;0.59;78.64;98442.75;105688;1254;74301;-28
2023/11/21 08:27:35;;;;;;;9.80;6.00;;;;;;;0.50;79.31;98443.74;105629;1253;72539;-28
2023/11/21 08:30:03;;;;;;;10.10;6.70;;;;;;;0.98;78.84;98448.84;105542;1254;61081;-28
2023/11/21 08:32:32;;;;;;;12.50;7.60;;;;;;;1.44;76.96;98448.34;105524;1254;61109;-28
2023/11/21 08:35:00;;;;;;;10.60;5.80;;;;;;;1.48;76.34;98449.48;105854;1253;72856;-28
2023/11/21 08:37:30;;;;;;;10.30;7.50;;;;;;;1.29;76.57;98444.84;105876;1253;74693;-28
2023/11/21 08:40:00;;;;;;;7.10;4.90;;;;;;;1.04;77.48;98450.60;105728;1254;71759;-28
2023/11/21 08:42:29;;;;;;;9.50;7.60;;;;;;;0.79;78.21;98451.67;105574;1253;61030;-29
2023/11/21 08:44:59;;;;;;;10.30;7.70;;;;;;;0.56;79.34;98457.09;105727;1254;61260;-29
2023/11/21 08:47:27;;;;;;;4.30;3.00;;;;;;;0.45;79.89;98458.16;105861;1253;72921;-29
2023/11/21 08:49:54;;;;;;;5.60;3.70;;;;;;;0.87;79.25;98456.75;105892;1257;73786;-29
2023/11/21 08:52:22;;;;;;;9.30;5.90;;;;;;;1.34;77.91;98457.95;105881;1253;72576;-29
2023/11/21 08:54:55;;;;;;;9.50;6.40;;;;;;;1.42;77.61;98451.87;105771;1257;61162;-29
2023/11/21 08:57:23;;;;;;;9.20;6.50;;;;;;;1.30;77.56;98456.10;105524;1253;61194;-29
2023/11/21 08:59:55;;;;;;;9.40;5.70;;;;;;;1.13;78.17;98459.88;105667;1253;73038;-29
2023/11/21 09:02:23;;;;;;;10.20;6.50;;;;;;;0.95;78.65;98456.35;105525;1254;74846;-29
2023/11/21 09:04:52;;;;;;;11.30;7.80;;;;;;;0.76;79.45;98454.55;105555;1256;73190;-27
2023/11/21 09:07:20;;;;;;;9.70;6.30;;;;;;;0.66;80.36;98449.45;105610;1253;61133;-27
2023/11/21 09:09:48;;;;;;;10.10;7.10;;;;;;;1.16;79.82;98445.02;105478;1258;61105;-27
2023/11/21 09:12:16;;;;;;;9.20;5.70;;;;;;;1.74;77.72;98441.93;105598;1253;72797;-26
2023/11/21 09:14:44;;;;;;;10.60;7.40;;;;;;;1.85;76.67;98444.91;105915;1253;74333;-26
2023/11/21 09:17:11;;;;;;;10.10;7.00;;;;;;;1.74;76.80;98439.53;105822;1253;72657;-25
2023/11/21 09:19:38;;;;;;;8.70;5.90;;;;;;;1.54;77.18;98439.77;105852;1253;61055;-25
2023/11/21 09:22:05;;;;;;;8.00;5.40;;;;;;;1.34;77.93;98433.95;105731;1256;61106;-25
2023/11/21 09:24:33;;;;;;;8.60;6.40;;;;;;;1.20;78.42;98431.83;105833;1253;72966;-24
2023/11/21 09:27:00;;;;;;;11.90;7.10;;;;;;;1.20;79.03;98429.79;105695;1253;74130;-25
2023/11/21 09:29:28;;;;;;;7.10;5.40;;;;;;;1.70;78.29;98426.55;105798;1253;72510;-25
2023/11/21 09:31:59;;;;;;;7.30;4.70;;;;;;;1.84;76.91;98426.70;105617;1252;61060;-26
2023/11/21 09:34:26;;;;;;;11.50;7.80;;;;;;;1.68;77.23;98425.33;105438;1253;61066;-26
2023/11/21 09:36:54;;;;;;;6.70;4.90;;;;;;;1.50;77.75;98426.13;105729;1253;72811;-25
2023/11/21 09:39:21;;;;;;;12.20;7.40;;;;;;;1.26;78.48;98420.89;105860;1257;74174;-25
2023/11/21 09:41:56;;;;;;;7.40;4.80;;;;;;;1.08;79.36;98418.61;105852;1253;71773;-26
2023/11/21 09:44:32;;;;;;;6.20;4.50;;;;;;;1.22;79.32;98418.00;105467;1253;61251;-26
2023/11/21 09:47:00;;;;;;;10.70;7.00;;;;;;;1.71;78.19;98414.17;105663;1257;61209;-27
2023/11/21 09:49:27;;;;;;;9.10;5.20;;;;;;;1.80;77.33;98416.29;105860;1254;73430;-27
2023/11/21 09:51:57;;;;;;;7.50;4.50;;;;;;;1.63;77.32;98416.66;105790;1253;73837;-28
2023/11/21 09:54:24;;;;;;;12.10;7.40;;;;;;;1.39;77.95;98415.06;105663;1253;72765;-28
2023/11/21 09:56:51;;;;;;;10.60;7.20;;;;;;;1.20;78.82;98411.99;105694;1253;61120;-28
2023/11/21 09:59:18;;;;;;;12.90;7.80;;;;;;;1.08;79.03;98411.92;105702;1254;61492;-29
2023/11/21 10:01:46;;;;;;;9.60;5.30;;;;;;;0.95;79.87;98411.71;105559;1254;73621;-29
2023/11/21 10:04:14;;;;;;;7.50;5.10;;;;;;;1.48;79.18;98408.80;105652;1258;74108;-29
2023/11/21 10:06:41;;;;;;;6.70;4.00;;;;;;;1.91;77.16;98410.20;105896;1253;73708;-30
2023/11/21 10:09:13;;;;;;;11.80;6.00;;;;;;;1.95;76.38;98409.78;105859;1253;61108;-30
2023/11/21 10:11:43;;;;;;;9.10;5.20;;;;;;;1.66;76.69;98405.95;105452;1260;61337;-30
2023/11/21 10:14:12;;;;;;;11.00;6.90;;;;;;;1.44;77.56;98409.31;105638;1253;74426;-31
2023/11/21 10:16:40;;;;;;;12.70;6.90;;;;;;;1.21;78.43;98412.09;105771;1253;72551;-32
2023/11/21 10:19:10;;;;;;;10.70;5.40;;;;;;;1.00;79.23;98418.16;105610;1258;72406;-36
2023/11/21 10:21:39;;;;;;;7.60;5.40;;;;;;;1.10;79.81;98418.98;105548;1260;61186;-35
2023/11/21 10:24:07;;;;;;;6.90;4.50;;;;;;;1.68;78.19;98417.13;105681;1258;61167;-33
2023/11/21 10:26:34;;;;;;;9.50;6.50;;;;;;;1.79;77.16;98414.76;105728;1260;72106;-31
2023/11/21 10:29:18;;;;;;;10.10;5.70;;;;;;;1.66;77.42;98416.52;105720;1253;74363;-32
2023/11/21 10:31:45;;;;;;;10.40;6.40;;;;;;;1.45;77.98;98418.17;105653;1254;72940;-30
2023/11/21 10:34:16;;;;;;;9.80;5.40;;;;;;;1.26;78.66;98420.02;105482;1254;61110;-30
2023/11/21 10:36:44;;;;;;;9.00;5.80;;;;;;;1.06;79.28;98418.52;105537;1254;61184;-30
2023/11/21 10:39:17;;;;;;;9.40;6.50;;;;;;;1.30;79.40;98418.10;105787;1253;73432;-30
2023/11/21 10:41:47;;;;;;;9.50;5.50;;;;;;;1.86;77.74;98427.75;105576;1254;74517;-30
2023/11/21 10:44:23;;;;;;;8.10;6.00;;;;;;;1.92;77.05;98427.61;105749;1252;72378;-30
2023/11/21 10:46:52;;;;;;;9.90;6.80;;;;;;;1.69;77.38;98426.15;105621;1253;61197;-30
2023/11/21 10:49:26;;;;;;;9.30;5.90;;;;;;;1.50;78.07;98421.13;105257;1260;61639;-30
2023/11/21 10:51:54;;;;;;;11.10;7.60;;;;;;;1.32;78.69;98420.56;105495;1257;70706;-30
2023/11/21 10:54:22;;;;;;;13.70;8.50;;;;;;;1.16;79.37;98423.66;105617;1253;75755;-30
2023/11/21 10:56:51;;;;;;;8.30;5.60;;;;;;;1.26;79.84;98425.16;105567;1256;73802;-30
2023/11/21 10:59:18;;;;;;;11.20;7.20;;;;;;;1.83;78.17;98426.20;105541;1253;61163;-30
2023/11/21 11:01:45;;;;;;;12.40;7.80;;;;;;;2.03;76.98;98428.18;105763;1256;61062;-30
2023/11/21 11:04:16;;;;;;;10.60;6.30;;;;;;;1.98;77.01;98425.91;105687;1253;72538;-30
2023/11/21 11:06:44;;;;;;;12.40;7.90;;;;;;;1.79;77.15;98431.89;105870;1257;74916;-30
2023/11/21 11:09:16;;;;;;;13.20;8.50;;;;;;;1.59;77.86;98433.02;105705;1253;75522;-30
2023/11/21 11:11:46;;;;;;;12.10;7.80;;;;;;;1.37;78.56;98436.06;105597;1253;61028;-30
2023/11/21 11:14:14;;;;;;;14.60;7.40;;;;;;;1.18;79.32;98443.89;105722;1253;61176;-31
2023/11/21 11:16:42;;;;;;;10.10;6.60;;;;;;;1.10;79.86;98447.22;105750;1253;74451;-30
2023/11/21 11:19:10;;;;;;;9.90;6.30;;;;;;;1.65;79.34;98448.73;105845;1253;75819;-30
2023/11/21 11:21:46;;;;;;;9.90;7.10;;;;;;;2.23;77.34;98445.90;105652;1254;72516;-30
2023/11/21 11:24:23;;;;;;;8.80;6.40;;;;;;;2.33;76.37;98448.26;105591;1259;61153;-30
2023/11/21 11:27:11;;;;;;;13.80;7.60;;;;;;;2.17;76.42;98449.48;105658;1253;61169;-31
2023/11/21 11:29:55;;;;;;;10.70;7.00;;;;;;;1.91;76.84;98452.13;105495;1254;73511;-30
2023/11/21 11:32:49;;;;;;;11.20;7.50;;;;;;;1.61;77.79;98453.79;105646;1253;75788;-30
2023/11/21 11:35:25;;;;;;;12.00;8.80;;;;;;;1.33;78.88;98456.45;105701;1253;71964;-30
2023/11/21 11:37:52;;;;;;;13.40;8.20;;;;;;;1.19;79.19;98455.09;105705;1257;61125;-30
2023/11/21 11:40:19;;;;;;;9.60;5.20;;;;;;;1.03;79.80;98455.27;105827;1254;61086;-30
2023/11/21 11:43:02;;;;;;;12.10;7.60;;;;;;;1.54;79.34;98459.27;105879;1253;72789;-30
2023/11/21 11:45:33;;;;;;;10.20;6.70;;;;;;;2.11;77.64;98455.86;105724;1253;75654;-30
2023/11/21 11:48:01;;;;;;;12.10;7.70;;;;;;;2.11;76.89;98451.86;105703;1253;71806;-30
2023/11/21 11:50:29;;;;;;;9.70;6.90;;;;;;;1.89;77.30;98449.14;105852;1253;62296;-30
2023/11/21 11:53:12;;;;;;;10.30;7.10;;;;;;;1.64;77.87;98446.95;105668;1258;61432;-30
2023/11/21 11:55:39;;;;;;;13.40;8.30;;;;;;;1.34;78.79;98449.89;105674;1258;73272;-30
2023/11/21 11:58:06;;;;;;;12.40;8.40;;;;;;;1.16;79.66;98451.86;105855;1253;74630;-30
2023/11/21 12:00:37;;;;;;;9.40;6.40;;;;;;;1.01;80.59;98443.91;105583;1253;72800;-30
2023/11/21 12:03:07;;;;;;;6.80;4.70;;;;;;;1.53;80.06;98430.73;105655;1253;61054;-30
2023/11/21 12:05:38;;;;;;;12.30;8.10;;;;;;;2.06;77.82;98421.02;105636;1252;61148;-29
2023/11/21 12:08:06;;;;;;;13.90;8.90;;;;;;;2.09;77.37;98420.14;105708;1253;72814;-30
2023/11/21 12:10:35;;;;;;;11.70;6.40;;;;;;;1.86;77.89;98421.58;105708;1253;75771;-30
2023/11/21 12:13:03;;;;;;;13.50;8.90;;;;;;;1.58;78.52;98425.84;105666;1259;72815;-30
2023/11/21 12:15:31;;;;;;;14.60;8.70;;;;;;;1.28;79.72;98425.74;105689;1254;61125;-30
2023/11/21 12:17:59;;;;;;;15.80;9.10;;;;;;;1.07;80.77;98425.32;105814;1257;61190;-30
2023/11/21 12:20:27;;;;;;;13.10;8.60;;;;;;;0.94;81.64;98424.41;105713;1253;73752;-30
2023/11/21 12:22:55;;;;;;;9.40;6.60;;;;;;;1.38;80.99;98428.96;105697;1257;74874;-30
2023/11/21 12:25:31;;;;;;;13.30;8.10;;;;;;;1.66;79.68;98434.88;105625;1253;72748;-30
2023/11/21 12:27:59;;;;;;;15.10;9.00;;;;;;;1.60;79.30;98436.73;105488;1254;61093;-30
2023/11/21 12:30:30;;;;;;;12.00;7.60;;;;;;;1.39;79.82;98432.87;105415;1253;61172;-30
2023/11/21 12:32:59;;;;;;;13.80;7.70;;;;;;;1.20;80.74;98433.20;105492;1260;72924;-29
2023/11/21 12:35:28;;;;;;;15.30;9.10;;;;;;;1.05;80.98;98433.94;105655;1253;73503;-32
2023/11/21 12:37:57;;;;;;;9.50;6.00;;;;;;;0.97;81.76;98435.74;105422;1256;72655;-30
2023/11/21 12:40:24;;;;;;;18.20;8.80;;;;;;;1.47;80.93;98437.89;105457;1258;61135;-29
2023/11/21 12:42:53;;;;;;;11.50;7.80;;;;;;;1.80;79.57;98440.77;105733;1257;61157;-30
2023/11/21 12:45:22;;;;;;;14.00;7.80;;;;;;;1.64;79.32;98442.14;105650;1253;75052;-30
2023/11/21 12:48:11;;;;;;;16.70;9.10;;;;;;;1.44;80.10;98444.73;105722;1253;74609;-29
2023/11/21 12:50:39;;;;;;;13.10;8.20;;;;;;;1.18;80.92;98447.32;105521;1253;72713;-30
2023/11/21 12:53:12;;;;;;;13.40;8.80;;;;;;;0.95;81.77;98446.07;105433;1253;61166;-30
2023/11/21 12:55:39;;;;;;;13.90;8.40;;;;;;;0.98;82.27;98449.16;105443;1253;61601;-29
2023/11/21 12:58:09;;;;;;;18.80;9.00;;;;;;;1.62;81.07;98452.02;105648;1253;73219;-30
2023/11/21 13:00:42;;;;;;;20.40;11.30;;;;;;;1.91;79.50;98453.83;105299;1254;73605;-30
2023/11/21 13:03:12;;;;;;;;;;;;;;;1.82;79.16;98456.05;105431;1253;72851;-30
2023/11/21 13:05:42;;;;;;;12.50;8.10;;;;;;;1.55;79.65;98453.05;105505;1253;61107;-29
2023/11/21 13:08:11;;;;;;;14.30;8.30;;;;;;;1.17;80.90;98451.79;105521;1256;61118;-30
2023/11/21 13:10:42;;;;;;;17.30;9.70;;;;;;;0.97;82.12;98449.74;105613;1253;75023;-30
2023/11/21 13:13:16;;;;;;;11.70;6.70;;;;;;;0.79;82.99;98452.54;105638;1253;73068;-30
2023/11/21 13:15:55;;;;;;;13.20;7.60;;;;;;;1.19;82.63;98454.08;105555;1253;72985;-29
2023/11/21 13:18:23;;;;;;;15.60;9.40;;;;;;;1.55;80.90;98456.10;105705;1254;61763;-29
2023/11/21 13:20:50;;;;;;;14.80;8.70;;;;;;;1.44;80.98;98459.95;105575;1256;61164;-30
2023/11/21 13:23:17;;;;;;;19.50;10.70;;;;;;;1.22;81.66;98467.44;105563;1253;73397;-30
2023/11/21 13:25:48;;;;;;;13.20;7.60;;;;;;;1.08;81.99;98470.55;105679;1253;75797;-30
2023/11/21 13:28:31;;;;;;;15.20;9.40;;;;;;;0.91;82.47;98467.69;105679;1257;72248;-28
2023/11/21 13:31:08;;;;;;;10.90;6.80;;;;;;;1.02;83.25;98468.48;105596;1253;61199;-28
2023/11/21 13:33:42;;;;;;;8.80;6.30;;;;;;;1.69;81.23;98473.20;105539;1262;61103;-28
2023/11/21 13:36:09;;;;;;;18.40;9.20;;;;;;;1.88;79.81;98477.79;105726;1258;73464;-28
2023/11/21 13:38:41;;;;;;;19.50;11.50;;;;;;;1.70;79.86;98478.92;105903;1257;74089;-28
2023/11/21 13:41:09;;;;;;;14.40;8.50;;;;;;;1.49;80.45;98481.96;105855;1254;73041;-28
2023/11/21 13:43:37;;;;;;;8.50;6.00;;;;;;;1.27;81.12;98485.13;105695;1253;61198;-28
2023/11/21 13:46:13;;;;;;;16.10;10.10;;;;;;;1.03;81.88;98488.41;105529;1258;61135;-28
2023/11/21 13:48:42;;;;;;;12.20;7.80;;;;;;;0.84;82.91;98489.53;105666;1253;75180;-28
2023/11/21 13:51:17;;;;;;;7.80;5.10;;;;;;;1.26;82.88;98482.47;105799;1255;74073;-28
2023/11/21 13:53:47;;;;;;;11.40;7.70;;;;;;;1.72;80.82;98474.72;105602;1257;71649;-28
2023/11/21 13:56:19;;;;;;;13.90;8.10;;;;;;;1.72;80.44;98479.55;105681;1253;61152;-27
2023/11/21 13:58:51;;;;;;;10.70;6.60;;;;;;;1.45;81.12;98479.73;105895;1254;61062;-29
2023/11/21 14:01:53;;;;;;;9.30;6.30;;;;;;;1.18;81.88;98478.92;105696;1253;73906;-27